createdAt,value
2019-06-27T00:02:24.147Z,16.24
2019-06-27T00:04:53.193Z,16.14
2019-06-27T00:07:22.226Z,16.20
2019-06-27T00:09:51.885Z,16.11
2019-06-27T00:12:21.132Z,16.08
2019-06-27T00:14:49.942Z,16.07
2019-06-27T00:17:18.725Z,16.12
2019-06-27T00:19:47.379Z,16.11
2019-06-27T00:22:16.700Z,16.02
2019-06-27T00:24:45.836Z,15.95
2019-06-27T00:27:14.681Z,16.03
2019-06-27T00:29:43.357Z,15.96
2019-06-27T00:32:12.299Z,15.93
2019-06-27T00:34:41.398Z,15.90
2019-06-27T00:37:10.491Z,15.96
2019-06-27T00:39:39.367Z,15.99
2019-06-27T00:42:08.232Z,15.90
2019-06-27T00:44:37.000Z,16.05
2019-06-27T00:47:06.399Z,16.04
2019-06-27T00:49:35.294Z,15.88
2019-06-27T00:52:04.024Z,16.00
2019-06-27T00:57:15.119Z,16.06
2019-06-27T00:59:44.188Z,16.10
2019-06-27T01:02:12.857Z,16.12
2019-06-27T01:04:41.853Z,16.08
2019-06-27T01:07:10.953Z,16.18
2019-06-27T01:09:39.632Z,16.21
2019-06-27T01:12:08.626Z,16.12
2019-06-27T01:14:37.425Z,16.17
2019-06-27T01:17:06.189Z,16.03
2019-06-27T01:19:35.345Z,16.11
2019-06-27T01:22:04.209Z,16.04
2019-06-27T01:24:33.086Z,15.89
2019-06-27T01:27:02.186Z,15.70
2019-06-27T01:29:30.755Z,15.65
2019-06-27T01:31:59.651Z,15.67
2019-06-27T01:34:28.713Z,15.75
2019-06-27T01:36:57.750Z,15.62
2019-06-27T01:39:26.835Z,15.59
2019-06-27T01:41:55.937Z,15.51
2019-06-27T01:44:42.296Z,15.41
2019-06-27T01:47:11.065Z,15.53
2019-06-27T01:49:43.655Z,15.51
2019-06-27T01:52:12.585Z,15.29
2019-06-27T01:54:41.595Z,15.38
2019-06-27T01:57:10.486Z,15.34
2019-06-27T01:59:40.345Z,15.34
2019-06-27T02:02:09.297Z,15.35
2019-06-27T02:04:38.008Z,15.32
2019-06-27T02:07:07.081Z,15.29
2019-06-27T02:09:36.170Z,15.26
2019-06-27T02:12:04.947Z,15.24
2019-06-27T02:14:33.685Z,15.31
2019-06-27T02:17:02.672Z,15.27
2019-06-27T02:19:31.638Z,15.27
2019-06-27T02:22:00.247Z,15.44
2019-06-27T02:24:29.278Z,15.35
2019-06-27T02:26:58.511Z,15.30
2019-06-27T02:29:27.488Z,15.30
2019-06-27T02:31:56.914Z,15.23
2019-06-27T02:34:25.910Z,15.24
2019-06-27T02:36:54.572Z,15.31
2019-06-27T02:39:24.035Z,15.29
2019-06-27T02:41:53.086Z,15.27
2019-06-27T02:44:21.699Z,15.27
2019-06-27T02:46:50.360Z,15.33
2019-06-27T02:49:19.251Z,15.26
2019-06-27T02:51:48.247Z,15.22
2019-06-27T02:54:17.650Z,15.23
2019-06-27T02:56:46.642Z,15.20
2019-06-27T02:59:15.939Z,15.13
2019-06-27T03:01:44.977Z,15.09
2019-06-27T03:04:14.236Z,15.05
2019-06-27T03:06:42.849Z,15.10
2019-06-27T03:09:11.683Z,14.96
2019-06-27T03:11:40.910Z,15.09
2019-06-27T03:14:09.798Z,15.09
2019-06-27T03:16:38.492Z,15.07
2019-06-27T03:19:07.372Z,15.00
2019-06-27T03:21:36.583Z,15.06
2019-06-27T03:24:05.678Z,15.07
2019-06-27T03:26:34.678Z,15.20
2019-06-27T03:29:03.724Z,15.16
2019-06-27T03:31:32.447Z,15.25
2019-06-27T03:34:01.174Z,15.12
2019-06-27T03:36:30.233Z,15.20
2019-06-27T03:38:59.229Z,15.25
2019-06-27T03:41:28.221Z,15.28
2019-06-27T03:43:56.891Z,15.29
2019-06-27T03:46:25.606Z,15.37
2019-06-27T03:48:54.236Z,15.33
2019-06-27T03:51:22.858Z,15.32
2019-06-27T03:53:51.932Z,15.37
2019-06-27T03:56:20.846Z,15.33
2019-06-27T03:59:10.188Z,15.31
2019-06-27T04:01:20.480Z,15.42
2019-06-27T04:03:49.380Z,15.31
2019-06-27T04:06:18.273Z,15.30
2019-06-27T04:08:47.377Z,15.28
2019-06-27T04:11:16.430Z,15.31
2019-06-27T04:13:45.118Z,15.35
2019-06-27T04:16:14.190Z,15.23
2019-06-27T04:18:43.649Z,15.33
2019-06-27T04:21:12.744Z,15.15
2019-06-27T04:23:41.844Z,15.18
2019-06-27T04:26:10.757Z,15.17
2019-06-27T04:28:39.828Z,15.16
2019-06-27T04:31:08.591Z,15.15
2019-06-27T04:33:37.509Z,15.23
2019-06-27T04:36:06.158Z,15.22
2019-06-27T04:38:35.135Z,15.20
2019-06-27T04:41:03.830Z,15.34
2019-06-27T04:43:32.785Z,15.22
2019-06-27T04:46:02.064Z,15.16
2019-06-27T04:48:31.144Z,15.24
2019-06-27T04:51:00.560Z,15.30
2019-06-27T04:53:29.150Z,15.46
2019-06-27T04:55:58.761Z,15.37
2019-06-27T04:58:27.439Z,15.51
2019-06-27T05:00:56.146Z,15.61
2019-06-27T05:03:24.833Z,15.59
2019-06-27T05:05:53.810Z,15.68
2019-06-27T05:08:22.812Z,15.64
2019-06-27T05:10:51.779Z,15.70
2019-06-27T05:13:21.096Z,15.60
2019-06-27T05:15:50.394Z,15.55
2019-06-27T05:18:19.066Z,15.63
2019-06-27T05:20:47.840Z,15.68
2019-06-27T05:23:16.868Z,15.65
2019-06-27T05:25:45.750Z,15.81
2019-06-27T05:28:14.765Z,15.93
2019-06-27T05:30:44.205Z,15.98
2019-06-27T05:33:12.903Z,16.16
2019-06-27T05:35:41.835Z,16.27
2019-06-27T05:38:10.643Z,16.21
2019-06-27T05:40:39.377Z,16.20
2019-06-27T05:43:08.013Z,16.12
2019-06-27T05:45:36.989Z,16.30
2019-06-27T05:48:05.752Z,16.23
2019-06-27T05:50:34.505Z,16.15
2019-06-27T05:53:03.773Z,16.25
2019-06-27T05:55:32.660Z,16.13
2019-06-27T05:58:01.651Z,16.20
2019-06-27T06:00:30.635Z,16.16
2019-06-27T06:02:59.540Z,16.21
2019-06-27T06:05:28.273Z,16.27
2019-06-27T06:07:56.969Z,16.26
2019-06-27T06:10:25.997Z,16.27
2019-06-27T06:12:54.708Z,16.36
2019-06-27T06:15:23.409Z,16.28
2019-06-27T06:17:52.467Z,16.26
2019-06-27T06:20:21.303Z,16.25
2019-06-27T06:22:50.097Z,16.27
2019-06-27T06:25:18.758Z,16.47
2019-06-27T06:27:47.626Z,16.33
2019-06-27T06:30:16.761Z,16.39
2019-06-27T06:32:45.707Z,16.42
2019-06-27T06:35:14.710Z,16.45
2019-06-27T06:37:43.699Z,16.68
2019-06-27T06:40:12.442Z,16.74
2019-06-27T06:42:41.038Z,16.45
2019-06-27T06:45:09.777Z,16.40
2019-06-27T06:47:38.860Z,16.64
2019-06-27T06:50:07.906Z,16.53
2019-06-27T06:52:36.598Z,16.62
2019-06-27T06:55:05.475Z,16.66
2019-06-27T06:57:34.423Z,16.63
2019-06-27T07:00:03.251Z,16.91
2019-06-27T07:02:32.247Z,16.84
2019-06-27T07:05:01.743Z,16.81
2019-06-27T07:07:30.715Z,16.70
2019-06-27T07:09:59.869Z,16.91
2019-06-27T07:12:28.497Z,16.87
2019-06-27T07:14:57.375Z,17.08
2019-06-27T07:17:26.278Z,17.04
2019-06-27T07:19:57.549Z,16.85
2019-06-27T07:22:26.025Z,17.04
2019-06-27T07:24:55.004Z,17.09
2019-06-27T07:27:24.389Z,17.16
2019-06-27T07:29:53.183Z,17.22
2019-06-27T07:32:22.187Z,17.25
2019-06-27T07:34:50.972Z,17.32
2019-06-27T07:37:19.612Z,17.01
2019-06-27T07:39:48.651Z,16.96
2019-06-27T07:42:17.645Z,16.92
2019-06-27T07:44:46.746Z,16.82
2019-06-27T07:47:15.453Z,16.88
2019-06-27T07:49:44.425Z,17.13
2019-06-27T07:52:13.533Z,17.25
2019-06-27T07:54:42.413Z,17.02
2019-06-27T07:57:11.487Z,17.03
2019-06-27T07:59:40.844Z,17.10
2019-06-27T08:02:09.537Z,17.03
2019-06-27T08:04:38.539Z,16.93
2019-06-27T08:07:07.995Z,17.10
2019-06-27T08:09:36.738Z,17.38
2019-06-27T08:12:05.498Z,17.26
2019-06-27T08:14:34.293Z,17.35
2019-06-27T08:17:03.341Z,17.54
2019-06-27T08:19:32.347Z,17.58
2019-06-27T08:22:01.346Z,17.44
2019-06-27T08:24:33.437Z,17.33
2019-06-27T08:27:01.075Z,17.14
2019-06-27T08:29:29.708Z,17.16
2019-06-27T08:31:59.261Z,17.18
2019-06-27T08:34:27.897Z,17.37
2019-06-27T08:36:56.562Z,17.22
2019-06-27T08:39:25.596Z,17.67
2019-06-27T08:41:54.253Z,17.70
2019-06-27T08:44:23.265Z,17.64
2019-06-27T08:46:52.202Z,17.59
2019-06-27T08:49:20.881Z,17.75
2019-06-27T08:51:49.541Z,18.04
2019-06-27T08:54:18.200Z,18.00
2019-06-27T08:56:46.920Z,18.15
2019-06-27T08:59:15.599Z,18.18
2019-06-27T09:01:44.620Z,18.03
2019-06-27T09:04:13.615Z,18.15
2019-06-27T09:06:42.236Z,18.06
2019-06-27T09:09:10.895Z,18.15
2019-06-27T09:11:39.572Z,18.18
2019-06-27T09:14:08.666Z,18.21
2019-06-27T09:16:37.369Z,18.44
2019-06-27T09:19:06.450Z,18.39
2019-06-27T09:21:35.419Z,18.12
2019-06-27T09:24:04.114Z,18.42
2019-06-27T09:26:32.743Z,18.70
2019-06-27T09:29:01.400Z,18.81
2019-06-27T09:31:30.494Z,18.86
2019-06-27T09:33:59.245Z,18.44
2019-06-27T09:36:28.182Z,18.59
2019-06-27T09:38:56.880Z,18.66
2019-06-27T09:41:25.525Z,18.83
2019-06-27T09:43:54.750Z,18.63
2019-06-27T09:46:23.639Z,18.49
2019-06-27T09:48:52.538Z,18.47
2019-06-27T09:51:21.849Z,18.54
2019-06-27T09:53:51.131Z,18.41
2019-06-27T09:56:20.540Z,18.46
2019-06-27T09:58:49.149Z,18.50
2019-06-27T10:01:17.828Z,18.80
2019-06-27T10:03:46.951Z,18.59
2019-06-27T10:06:15.975Z,18.48
2019-06-27T10:08:44.602Z,18.61
2019-06-27T10:11:13.579Z,19.01
2019-06-27T10:13:42.473Z,19.38
2019-06-27T10:16:11.437Z,19.52
2019-06-27T10:18:40.324Z,19.47
2019-06-27T10:21:09.347Z,19.47
2019-06-27T10:23:38.148Z,19.69
2019-06-27T10:26:06.836Z,19.51
2019-06-27T10:28:35.716Z,19.46
2019-06-27T10:31:04.709Z,19.55
2019-06-27T10:33:33.415Z,19.50
2019-06-27T10:36:02.047Z,19.41
2019-06-27T10:38:30.969Z,19.93
2019-06-27T10:40:59.968Z,19.92
2019-06-27T10:43:28.976Z,19.49
2019-06-27T10:45:58.560Z,18.91
2019-06-27T10:48:27.457Z,19.76
2019-06-27T10:50:56.052Z,20.02
2019-06-27T10:53:25.117Z,20.53
2019-06-27T10:55:54.542Z,20.49
2019-06-27T10:58:23.646Z,20.80
2019-06-27T11:00:52.545Z,20.54
2019-06-27T11:03:21.510Z,20.31
2019-06-27T11:05:50.151Z,20.56
2019-06-27T11:08:19.133Z,20.19
2019-06-27T11:10:47.903Z,19.93
2019-06-27T11:13:16.614Z,19.92
2019-06-27T11:15:45.293Z,20.10
2019-06-27T11:18:14.932Z,19.86
2019-06-27T11:20:43.862Z,20.40
2019-06-27T11:23:12.837Z,20.19
2019-06-27T11:25:41.516Z,20.07
2019-06-27T11:28:10.509Z,20.03
2019-06-27T11:30:39.319Z,19.99
2019-06-27T11:33:08.069Z,20.14
2019-06-27T11:35:37.127Z,20.42
2019-06-27T11:38:06.285Z,20.69
2019-06-27T11:40:35.816Z,20.47
2019-06-27T11:43:04.806Z,20.88
2019-06-27T11:45:33.699Z,20.63
2019-06-27T11:48:02.899Z,19.87
2019-06-27T11:50:32.098Z,19.95
2019-06-27T11:53:01.091Z,20.01
2019-06-27T11:55:30.291Z,20.16
2019-06-27T11:57:59.699Z,20.47
2019-06-27T12:00:28.440Z,20.80
2019-06-27T12:02:57.482Z,21.30
2019-06-27T12:05:26.980Z,21.51
2019-06-27T12:07:55.666Z,21.32
2019-06-27T12:10:24.687Z,21.02
2019-06-27T12:12:53.551Z,20.70
2019-06-27T12:15:22.277Z,21.77
2019-06-27T12:17:51.035Z,21.21
2019-06-27T12:20:20.125Z,20.67
2019-06-27T12:22:49.131Z,20.99
2019-06-27T12:25:18.113Z,20.68
2019-06-27T12:27:46.882Z,20.63
2019-06-27T12:30:15.648Z,21.08
2019-06-27T12:32:51.703Z,20.82
2019-06-27T12:35:15.725Z,20.65
2019-06-27T12:37:44.562Z,20.43
2019-06-27T12:40:13.258Z,20.33
2019-06-27T12:42:42.200Z,20.79
2019-06-27T12:45:11.443Z,21.26
2019-06-27T12:47:40.215Z,20.90
2019-06-27T12:50:09.264Z,21.32
2019-06-27T12:52:38.101Z,21.08
2019-06-27T12:55:07.372Z,21.20
2019-06-27T12:57:37.182Z,21.79
2019-06-27T13:00:08.775Z,21.51
2019-06-27T13:02:37.467Z,21.10
2019-06-27T13:05:06.840Z,21.39
2019-06-27T13:07:35.582Z,21.51
2019-06-27T13:10:04.508Z,21.58
2019-06-27T13:12:33.152Z,21.68
2019-06-27T13:15:01.823Z,21.59
2019-06-27T13:17:31.329Z,21.51
2019-06-27T13:20:00.586Z,21.41
2019-06-27T13:22:29.311Z,21.68
2019-06-27T13:24:58.878Z,21.67
2019-06-27T13:27:28.187Z,21.62
2019-06-27T13:29:56.856Z,21.41
2019-06-27T13:32:26.266Z,22.11
2019-06-27T13:34:55.173Z,21.90
2019-06-27T13:37:23.797Z,22.29
2019-06-27T13:39:52.472Z,22.34
2019-06-27T13:42:21.427Z,21.92
2019-06-27T13:44:50.490Z,21.91
2019-06-27T13:47:20.408Z,22.38
2019-06-27T13:49:49.651Z,22.34
2019-06-27T13:52:19.444Z,21.75
2019-06-27T13:54:48.127Z,21.15
2019-06-27T13:57:16.803Z,21.30
2019-06-27T13:59:45.465Z,21.41
2019-06-27T14:02:14.715Z,21.54
2019-06-27T14:04:56.665Z,21.33
2019-06-27T14:07:14.047Z,20.72
2019-06-27T14:09:53.734Z,20.88
2019-06-27T14:12:13.174Z,20.53
2019-06-27T14:14:55.446Z,20.55
2019-06-27T14:17:12.492Z,21.24
2019-06-27T14:19:41.225Z,21.29
2019-06-27T14:22:14.799Z,20.73
2019-06-27T14:24:40.524Z,20.73
2019-06-27T14:27:09.192Z,21.13
2019-06-27T14:29:38.543Z,21.15
2019-06-27T14:32:07.544Z,20.93
2019-06-27T14:34:36.169Z,21.37
2019-06-27T14:37:05.228Z,21.62
2019-06-27T14:39:34.317Z,21.60
2019-06-27T14:42:03.832Z,22.20
2019-06-27T14:44:32.798Z,22.53
2019-06-27T14:47:01.787Z,22.25
2019-06-27T14:49:30.703Z,21.88
2019-06-27T14:51:59.706Z,22.31
2019-06-27T14:54:28.366Z,22.03
2019-06-27T14:56:57.026Z,22.35
2019-06-27T14:59:25.961Z,22.68
2019-06-27T15:01:54.857Z,21.79
2019-06-27T15:04:23.739Z,21.31
2019-06-27T15:06:52.467Z,21.27
2019-06-27T15:09:21.206Z,20.82
2019-06-27T15:11:50.402Z,21.14
2019-06-27T15:14:19.412Z,20.97
2019-06-27T15:16:48.406Z,20.73
2019-06-27T15:19:17.453Z,21.07
2019-06-27T15:21:46.441Z,21.24
2019-06-27T15:24:15.390Z,21.76
2019-06-27T15:26:43.960Z,21.93
2019-06-27T15:29:12.597Z,21.80
2019-06-27T15:31:41.961Z,21.79
2019-06-27T15:34:11.492Z,22.14
2019-06-27T15:36:40.168Z,22.07
2019-06-27T15:39:11.837Z,21.85
2019-06-27T15:41:39.422Z,22.00
2019-06-27T15:44:08.103Z,22.53
2019-06-27T15:46:37.051Z,22.09
2019-06-27T15:49:05.938Z,22.41
2019-06-27T15:51:34.681Z,21.34
2019-06-27T15:54:03.295Z,20.83
2019-06-27T15:56:32.304Z,20.63
2019-06-27T15:59:03.591Z,20.20
2019-06-27T16:01:31.410Z,19.96
2019-06-27T16:04:00.161Z,19.63
2019-06-27T16:06:28.847Z,19.52
2019-06-27T16:08:57.788Z,19.81
2019-06-27T16:11:26.404Z,19.69
2019-06-27T16:13:55.093Z,19.51
2019-06-27T16:16:24.105Z,20.37
2019-06-27T16:18:53.159Z,20.44
2019-06-27T16:21:21.865Z,19.89
2019-06-27T16:23:51.137Z,20.54
2019-06-27T16:26:19.762Z,20.59
2019-06-27T16:28:48.390Z,20.53
2019-06-27T16:31:17.405Z,20.94
2019-06-27T16:33:46.705Z,20.72
2019-06-27T16:36:24.928Z,20.36
2019-06-27T16:38:46.287Z,20.04
2019-06-27T16:41:15.219Z,19.89
2019-06-27T16:43:43.885Z,20.60
2019-06-27T16:46:12.507Z,20.67
2019-06-27T16:48:41.469Z,20.71
2019-06-27T16:51:10.210Z,21.19
2019-06-27T16:53:38.876Z,21.25
2019-06-27T16:56:07.503Z,20.41
2019-06-27T16:58:36.441Z,20.05
2019-06-27T17:01:05.173Z,19.69
2019-06-27T17:03:34.425Z,19.76
2019-06-27T17:06:03.164Z,19.47
2019-06-27T17:08:32.079Z,19.52
2019-06-27T17:11:01.398Z,19.38
2019-06-27T17:13:30.673Z,19.50
2019-06-27T17:15:59.741Z,19.95
2019-06-27T17:18:29.427Z,19.89
2019-06-27T17:20:58.525Z,19.45
2019-06-27T17:23:27.130Z,19.24
2019-06-27T17:25:57.229Z,18.93
2019-06-27T17:28:25.914Z,19.41
2019-06-27T17:30:54.631Z,20.06
2019-06-27T17:33:23.591Z,20.27
2019-06-27T17:35:52.567Z,20.34
2019-06-27T17:38:21.288Z,20.35
2019-06-27T17:40:50.267Z,19.58
2019-06-27T17:43:18.902Z,19.31
2019-06-27T17:45:47.820Z,19.50
2019-06-27T17:48:16.566Z,19.73
2019-06-27T17:50:45.332Z,19.64
2019-06-27T17:53:14.345Z,19.67
2019-06-27T17:55:43.609Z,19.77
2019-06-27T17:58:12.358Z,20.01
2019-06-27T18:00:41.233Z,20.04
2019-06-27T18:03:10.176Z,20.06
2019-06-27T18:05:39.382Z,19.80
2019-06-27T18:08:08.479Z,19.71
2019-06-27T18:10:37.464Z,19.87
2019-06-27T18:13:06.664Z,19.68
2019-06-27T18:15:35.369Z,19.39
2019-06-27T18:18:03.985Z,19.31
2019-06-27T18:20:33.030Z,19.52
2019-06-27T18:23:01.728Z,19.33
2019-06-27T18:25:30.810Z,19.14
2019-06-27T18:27:59.803Z,19.16
2019-06-27T18:30:28.604Z,19.13
2019-06-27T18:32:57.306Z,19.11
2019-06-27T18:35:26.271Z,18.91
2019-06-27T18:37:54.930Z,19.05
2019-06-27T18:40:24.078Z,18.88
2019-06-27T18:42:52.715Z,18.71
2019-06-27T18:45:21.430Z,18.53
2019-06-27T18:47:50.318Z,18.56
2019-06-27T18:50:19.352Z,18.58
2019-06-27T18:52:48.305Z,18.37
2019-06-27T18:55:16.936Z,18.37
2019-06-27T18:57:45.581Z,18.33
2019-06-27T19:00:15.290Z,18.30
2019-06-27T19:02:44.593Z,18.16
2019-06-27T19:05:13.710Z,18.11
2019-06-27T19:07:46.110Z,17.94
2019-06-27T19:10:14.059Z,17.90
2019-06-27T19:12:42.708Z,17.82
2019-06-27T19:15:11.595Z,17.88
2019-06-27T19:17:40.295Z,17.76
2019-06-27T19:20:23.217Z,17.70
2019-06-27T19:23:07.872Z,17.62
2019-06-27T19:25:37.064Z,17.59
2019-06-27T19:28:06.067Z,17.63
2019-06-27T19:30:34.953Z,17.57
2019-06-27T19:33:03.738Z,17.48
2019-06-27T19:35:32.740Z,17.49
2019-06-27T19:38:02.941Z,17.46
2019-06-27T19:40:32.673Z,17.41
2019-06-27T19:43:01.973Z,17.44
2019-06-27T19:45:30.763Z,17.42
2019-06-27T19:47:59.401Z,17.35
2019-06-27T19:50:28.441Z,17.30
2019-06-27T19:52:57.057Z,17.36
2019-06-27T19:55:26.123Z,17.29
2019-06-27T19:57:54.814Z,17.32
2019-06-27T20:00:23.557Z,17.27
2019-06-27T20:02:52.604Z,17.23
2019-06-27T20:05:21.683Z,17.23
2019-06-27T20:07:50.446Z,17.16
2019-06-27T20:10:19.210Z,17.12
2019-06-27T20:12:47.849Z,17.23
2019-06-27T20:15:16.976Z,17.11
2019-06-27T20:17:45.760Z,17.13
2019-06-27T20:20:15.664Z,17.08
2019-06-27T20:22:46.631Z,17.12
2019-06-27T20:25:15.448Z,17.15
2019-06-27T20:27:44.209Z,17.19
2019-06-27T20:30:14.283Z,17.19
2019-06-27T20:32:43.232Z,17.30
2019-06-27T20:35:12.493Z,17.23
2019-06-27T20:37:41.581Z,17.24
2019-06-27T20:40:10.816Z,17.25
2019-06-27T20:42:39.760Z,17.27
2019-06-27T20:45:09.692Z,17.29
2019-06-27T20:47:38.467Z,17.23
2019-06-27T20:50:08.149Z,17.17
2019-06-27T20:52:37.182Z,17.22
2019-06-27T20:55:07.094Z,17.22
2019-06-27T20:57:35.728Z,17.22
2019-06-27T21:00:04.944Z,17.16
2019-06-27T21:02:34.010Z,17.19
2019-06-27T21:05:02.793Z,17.23
2019-06-27T21:07:31.761Z,17.22
2019-06-27T21:10:00.819Z,17.12
2019-06-27T21:12:29.573Z,17.09
2019-06-27T21:14:58.635Z,17.13
2019-06-27T21:17:27.508Z,17.16
2019-06-27T21:19:56.213Z,17.02
2019-06-27T21:22:25.512Z,17.04
2019-06-27T21:24:54.607Z,17.10
2019-06-27T21:27:23.600Z,17.28
2019-06-27T21:29:52.568Z,17.19
2019-06-27T21:32:31.312Z,17.22
2019-06-27T21:34:51.945Z,17.17
2019-06-27T21:37:20.943Z,17.03
2019-06-27T21:39:49.915Z,16.99
2019-06-27T21:42:18.994Z,17.02
2019-06-27T21:44:48.294Z,16.98
2019-06-27T21:47:17.598Z,16.98
2019-06-27T21:49:46.854Z,17.02
2019-06-27T21:52:15.527Z,17.02
2019-06-27T21:54:44.481Z,16.90
2019-06-27T21:57:13.468Z,17.03
2019-06-27T21:59:42.797Z,17.03
2019-06-27T22:02:11.614Z,17.01
2019-06-27T22:04:40.671Z,16.98
2019-06-27T22:07:09.273Z,16.96
2019-06-27T22:09:37.937Z,16.96
2019-06-27T22:12:07.023Z,16.93
2019-06-27T22:14:35.719Z,16.86
2019-06-27T22:17:05.122Z,16.80
2019-06-27T22:19:34.114Z,16.82
2019-06-27T22:22:02.775Z,16.78
2019-06-27T22:24:31.785Z,16.82
2019-06-27T22:27:00.904Z,16.89
2019-06-27T22:29:30.323Z,16.82
2019-06-27T22:31:59.196Z,16.75
2019-06-27T22:34:28.794Z,16.87
2019-06-27T22:37:03.753Z,16.80
2019-06-27T22:39:51.391Z,16.81
2019-06-27T22:42:38.229Z,16.69
2019-06-27T22:45:25.693Z,16.68
2019-06-27T22:48:12.196Z,16.59
2019-06-27T22:50:58.394Z,16.60
2019-06-27T22:53:28.621Z,16.65
2019-06-27T22:55:57.616Z,16.63
2019-06-27T22:58:26.245Z,16.63
2019-06-27T23:00:55.598Z,16.49
2019-06-27T23:03:24.500Z,16.48
2019-06-27T23:05:53.222Z,16.51
2019-06-27T23:08:22.269Z,16.44
2019-06-27T23:10:51.266Z,16.43
2019-06-27T23:13:20.322Z,16.42
2019-06-27T23:15:49.087Z,16.31
2019-06-27T23:18:18.141Z,16.24
2019-06-27T23:20:47.856Z,16.16
2019-06-27T23:23:16.829Z,16.15
2019-06-27T23:25:45.432Z,15.94
2019-06-27T23:28:14.098Z,16.00
2019-06-27T23:30:43.009Z,15.91
2019-06-27T23:33:11.897Z,15.86
2019-06-27T23:35:41.203Z,15.92
2019-06-27T23:38:10.189Z,16.04
2019-06-27T23:40:39.188Z,16.16
2019-06-27T23:43:08.509Z,16.31
2019-06-27T23:45:37.765Z,16.32
2019-06-27T23:48:06.988Z,16.39
2019-06-27T23:50:35.669Z,16.46
2019-06-27T23:53:04.700Z,16.44
2019-06-27T23:55:33.767Z,16.45
2019-06-27T23:58:02.775Z,16.42
